Time;durP1;ratioP1;P1;durP2;ratioP2;P2;SDS_P1;SDS_P2;PMS_P1;PMS_P2;Temp;Humidity;BMP_temperature;BMP_pressure;BME280_temperature;BME280_humidity;BME280_pressure;Samples;Min_cycle;Max_cycle;Signal;HPM_P1;HPM_P2
2023/05/29 00:05:07;;;;;;;5.60;3.80;;;24.00;77.10;;;;;;10980126;32;20415;-76
2023/05/29 00:11:09;;;;;;;6.05;4.05;;;24.00;76.80;;;;;;10979826;32;20015;-76
2023/05/29 00:17:12;;;;;;;4.32;2.60;;;23.90;76.40;;;;;;10965772;32;20065;-76
2023/05/29 00:23:14;;;;;;;6.95;3.85;;;23.90;76.60;;;;;;10979504;32;20037;-76
2023/05/29 00:29:16;;;;;;;6.95;3.97;;;23.80;77.40;;;;;;10979331;32;20023;-77
2023/05/29 00:35:18;;;;;;;3.90;2.95;;;23.80;77.30;;;;;;10965424;32;20023;-76
2023/05/29 00:41:20;;;;;;;5.55;2.97;;;23.80;77.30;;;;;;10979301;32;20007;-75
2023/05/29 00:47:23;;;;;;;5.85;2.95;;;23.80;77.60;;;;;;10983006;32;20424;-76
2023/05/29 00:53:25;;;;;;;5.60;3.17;;;23.60;78.20;;;;;;10986329;32;20018;-76
2023/05/29 00:59:30;;;;;;;5.68;3.03;;;23.50;78.30;;;;;;10986147;32;20045;-77
2023/05/29 01:05:35;;;;;;;4.62;2.83;;;23.50;78.70;;;;;;10985923;32;20345;-75
2023/05/29 01:11:41;;;;;;;3.53;1.87;;;23.40;79.00;;;;;;10983339;32;20006;-77
2023/05/29 01:18:23;;;;;;;5.60;2.58;;;23.40;79.10;;;;;;10985626;32;20474;-76
2023/05/29 01:25:01;;;;;;;5.50;3.47;;;23.40;78.80;;;;;;10962259;32;20020;-77
2023/05/29 01:31:31;;;;;;;7.50;3.13;;;23.30;79.10;;;;;;10866561;32;20050;-77
2023/05/29 01:37:50;;;;;;;4.85;3.05;;;23.30;78.80;;;;;;10865593;32;20423;-76
2023/05/29 01:44:08;;;;;;;5.97;3.75;;;23.30;78.70;;;;;;10867867;32;20023;-77
2023/05/29 01:50:13;;;;;;;5.95;3.28;;;23.30;78.70;;;;;;10854943;32;20043;-76
2023/05/29 01:56:15;;;;;;;6.82;4.03;;;23.20;78.80;;;;;;10864505;32;20027;-76
2023/05/29 02:02:17;;;;;;;6.12;3.17;;;23.20;78.70;;;;;;10865266;32;20039;-75
2023/05/29 02:08:19;;;;;;;4.40;2.47;;;23.20;78.90;;;;;;10802330;32;20016;-76
2023/05/29 02:14:24;;;;;;;3.92;2.33;;;23.10;78.80;;;;;;10791193;33;20020;-76
2023/05/29 02:20:27;;;;;;;5.65;3.05;;;23.00;79.10;;;;;;10792278;33;20338;-76
2023/05/29 02:26:29;;;;;;;4.97;2.95;;;23.00;79.00;;;;;;10931194;32;20030;-77
2023/05/29 02:32:31;;;;;;;4.87;3.00;;;22.90;79.00;;;;;;10971375;32;20042;-77
2023/05/29 02:38:32;;;;;;;3.42;2.33;;;22.80;78.90;;;;;;10982731;32;20046;-77
2023/05/29 02:44:34;;;;;;;6.65;3.17;;;22.80;78.90;;;;;;10981756;32;20045;-76
2023/05/29 02:50:36;;;;;;;4.90;3.22;;;22.80;78.80;;;;;;10982274;32;20053;-76
2023/05/29 02:56:38;;;;;;;7.18;3.62;;;22.80;78.50;;;;;;10968256;32;20344;-77
2023/05/29 03:02:40;;;;;;;6.12;3.33;;;22.80;78.00;;;;;;10982023;32;20108;-76
2023/05/29 03:08:44;;;;;;;6.40;3.85;;;22.70;77.90;;;;;;10981898;32;20041;-76
2023/05/29 03:14:46;;;;;;;5.40;3.05;;;22.70;78.10;;;;;;10965023;32;20045;-76
2023/05/29 03:20:49;;;;;;;4.65;3.08;;;22.60;78.30;;;;;;10982479;32;20022;-76
2023/05/29 03:26:53;;;;;;;4.50;2.67;;;22.50;78.40;;;;;;10981340;32;20030;-77
2023/05/29 03:33:03;;;;;;;4.33;2.73;;;22.60;78.40;;;;;;10964981;32;20352;-77
2023/05/29 03:39:06;;;;;;;4.32;2.75;;;22.60;78.40;;;;;;10963445;32;20022;-76
2023/05/29 03:45:08;;;;;;;3.12;2.28;;;22.50;78.50;;;;;;10980981;32;20037;-77
2023/05/29 03:51:11;;;;;;;6.18;3.15;;;22.50;78.60;;;;;;10967705;32;20027;-77
2023/05/29 03:57:14;;;;;;;5.55;3.37;;;22.50;78.50;;;;;;10980734;32;20035;-77
2023/05/29 04:03:18;;;;;;;6.28;3.50;;;22.50;78.50;;;;;;10979513;32;20018;-77
2023/05/29 04:09:21;;;;;;;25.88;4.10;;;22.50;78.40;;;;;;10961771;32;20344;-78
2023/05/29 04:15:24;;;;;;;5.53;3.33;;;22.50;78.40;;;;;;10976414;32;20430;-77
2023/05/29 04:21:26;;;;;;;6.55;3.78;;;22.50;78.50;;;;;;10968550;32;20034;-77
2023/05/29 04:27:28;;;;;;;5.55;2.95;;;22.40;78.50;;;;;;10984093;32;20045;-77
2023/05/29 04:33:32;;;;;;;4.87;3.17;;;22.50;78.20;;;;;;10987365;32;20023;-77
2023/05/29 04:39:34;;;;;;;7.30;3.37;;;22.60;77.80;;;;;;10983610;32;20049;-77
2023/05/29 04:45:36;;;;;;;6.43;3.45;;;22.70;77.60;;;;;;10988065;32;20049;-77
2023/05/29 04:51:42;;;;;;;5.47;3.53;;;22.70;78.00;;;;;;10973464;32;20022;-77
2023/05/29 04:57:44;;;;;;;5.45;2.60;;;22.70;78.00;;;;;;10985727;32;20434;-76
2023/05/29 05:03:46;;;;;;;5.68;3.35;;;22.70;78.20;;;;;;10982339;32;20041;-76
2023/05/29 05:09:48;;;;;;;3.78;2.87;;;22.80;78.40;;;;;;10987282;32;20027;-77
2023/05/29 05:15:51;;;;;;;5.25;3.25;;;22.80;78.70;;;;;;10969083;32;20038;-77
2023/05/29 05:21:55;;;;;;;4.47;2.67;;;22.80;78.90;;;;;;10983277;32;20058;-77
2023/05/29 05:28:10;;;;;;;6.18;2.37;;;22.80;79.10;;;;;;10985270;32;20376;-76
2023/05/29 05:34:12;;;;;;;4.10;2.40;;;23.00;79.00;;;;;;10967088;32;20018;-75
2023/05/29 05:40:15;;;;;;;4.85;2.70;;;23.20;79.20;;;;;;10984355;32;20014;-75
2023/05/29 05:46:19;;;;;;;5.25;3.08;;;23.30;79.30;;;;;;10979990;32;20019;-77
2023/05/29 05:52:22;;;;;;;5.95;2.25;;;23.40;79.50;;;;;;10965597;32;20050;-77
2023/05/29 05:58:25;;;;;;;4.07;3.00;;;23.50;79.70;;;;;;10984084;32;20018;-75
2023/05/29 06:04:27;;;;;;;9.13;2.80;;;23.60;79.20;;;;;;10983754;32;20011;-75
2023/05/29 06:10:29;;;;;;;6.50;3.55;;;23.70;79.20;;;;;;10972041;32;20323;-76
2023/05/29 06:16:32;;;;;;;5.82;2.80;;;23.80;79.00;;;;;;10965353;32;20026;-78
2023/05/29 06:22:35;;;;;;;5.57;3.53;;;23.80;79.20;;;;;;10982990;32;20332;-75
2023/05/29 06:28:37;;;;;;;6.95;3.90;;;23.90;79.00;;;;;;10980892;32;20018;-75
2023/05/29 06:34:39;;;;;;;7.47;4.28;;;24.00;78.90;;;;;;10982337;32;20057;-77
2023/05/29 06:40:41;;;;;;;4.05;2.95;;;24.20;79.30;;;;;;10978529;32;20436;-75
2023/05/29 06:46:43;;;;;;;4.65;3.10;;;24.30;78.80;;;;;;10963900;32;20428;-76
2023/05/29 06:52:45;;;;;;;7.53;3.22;;;24.40;78.30;;;;;;10982006;32;20419;-77
2023/05/29 06:58:50;;;;;;;5.60;3.17;;;24.50;78.50;;;;;;10981706;32;20423;-76
2023/05/29 07:04:52;;;;;;;4.62;2.80;;;24.60;78.10;;;;;;10967983;32;20018;-75
2023/05/29 07:10:55;;;;;;;4.47;2.67;;;24.70;77.30;;;;;;10967299;32;20324;-75
2023/05/29 07:16:57;;;;;;;7.32;3.45;;;24.80;77.50;;;;;;10967303;32;20334;-75
2023/05/29 07:22:59;;;;;;;7.25;4.57;;;24.80;76.50;;;;;;10980819;32;20023;-74
2023/05/29 07:29:02;;;;;;;6.15;4.22;;;24.90;75.80;;;;;;10271044;32;21943686;-76
2023/05/29 07:35:04;;;;;;;9.38;4.22;;;24.90;74.40;;;;;;10939169;32;20474;-76
2023/05/29 07:41:08;;;;;;;6.18;4.07;;;25.00;74.10;;;;;;10934835;32;20435;-74
2023/05/29 07:47:10;;;;;;;6.72;4.10;;;25.20;74.60;;;;;;10925317;32;20380;-74
2023/05/29 07:53:24;;;;;;;7.05;4.03;;;25.20;72.70;;;;;;10962112;32;20034;-76
2023/05/29 07:59:27;;;;;;;5.68;3.35;;;25.30;72.50;;;;;;10979632;32;20048;-74
2023/05/29 08:05:31;;;;;;;7.22;4.43;;;25.40;72.80;;;;;;10979222;32;20030;-74
2023/05/29 08:11:34;;;;;;;5.55;3.40;;;25.40;72.40;;;;;;10966213;32;20026;-75
2023/05/29 08:17:37;;;;;;;7.28;3.90;;;25.50;71.10;;;;;;10979261;32;20026;-75
2023/05/29 08:23:39;;;;;;;7.37;3.12;;;25.60;71.00;;;;;;10965679;32;20018;-74
2023/05/29 08:29:58;;;;;;;7.90;4.15;;;25.70;70.10;;;;;;10964990;32;20060;-76
2023/05/29 08:36:00;;;;;;;8.90;5.18;;;25.80;69.00;;;;;;10964789;32;20034;-74
2023/05/29 08:42:10;;;;;;;8.20;5.18;;;25.90;68.70;;;;;;10978860;32;20023;-75
2023/05/29 08:48:14;;;;;;;7.95;5.80;;;25.90;69.70;;;;;;10978728;32;20048;-75
2023/05/29 08:54:17;;;;;;;10.43;4.82;;;26.00;69.20;;;;;;10978835;32;20409;-74
2023/05/29 09:00:22;;;;;;;10.50;5.87;;;26.00;67.20;;;;;;10978499;32;20045;-75
2023/05/29 09:06:25;;;;;;;10.60;4.85;;;26.30;68.60;;;;;;10979836;32;20448;-74
2023/05/29 09:12:27;;;;;;;7.47;4.47;;;26.30;67.20;;;;;;10972356;32;20010;-74
2023/05/29 09:18:31;;;;;;;16.50;5.82;;;26.40;69.30;;;;;;10970630;32;20030;-73
2023/05/29 09:24:33;;;;;;;12.75;4.30;;;26.40;65.00;;;;;;10985334;32;20030;-74
2023/05/29 09:30:46;;;;;;;7.07;3.83;;;26.60;63.90;;;;;;10985047;32;20027;-75
2023/05/29 09:36:49;;;;;;;6.87;4.28;;;26.80;63.60;;;;;;10970917;32;20045;-74
2023/05/29 09:42:51;;;;;;;8.07;4.93;;;26.80;63.50;;;;;;10984525;32;20102;-75
2023/05/29 09:48:53;;;;;;;9.98;5.12;;;26.90;64.20;;;;;;10984217;32;20015;-75
2023/05/29 09:54:56;;;;;;;9.90;4.50;;;27.00;62.50;;;;;;10984140;32;20031;-75
2023/05/29 10:00:59;;;;;;;5.47;3.00;;;27.20;63.10;;;;;;10970616;32;20010;-76
2023/05/29 10:07:25;;;;;;;8.85;4.10;;;27.30;62.20;;;;;;10970354;32;20512;-75
2023/05/29 10:13:31;;;;;;;8.70;4.10;;;27.50;61.70;;;;;;10816293;32;20035;-75
2023/05/29 10:19:36;;;;;;;5.53;3.30;;;27.60;64.40;;;;;;10828454;32;20040;-74
2023/05/29 10:25:40;;;;;;;6.43;4.50;;;27.50;62.60;;;;;;10827771;32;20027;-76
2023/05/29 10:32:03;;;;;;;8.85;4.90;;;27.70;61.20;;;;;;10829078;32;20159;-75
2023/05/29 10:38:13;;;;;;;8.23;3.80;;;27.80;63.00;;;;;;10830284;32;20028;-75
2023/05/29 10:44:30;;;;;;;8.93;4.15;;;27.90;61.30;;;;;;10816841;32;20383;-75
2023/05/29 10:50:47;;;;;;;5.37;3.37;;;28.10;62.80;;;;;;10955409;32;20026;-75
2023/05/29 10:56:56;;;;;;;7.18;4.60;;;28.30;60.90;;;;;;10968554;32;20037;-75
2023/05/29 11:03:03;;;;;;;5.93;3.65;;;28.50;63.30;;;;;;10981426;32;20549;-74
2023/05/29 11:09:37;;;;;;;11.03;4.77;;;28.60;60.10;;;;;;10980230;32;20018;-76
2023/05/29 11:15:40;;;;;;;7.60;4.90;;;28.80;58.60;;;;;;10979791;32;20130;-74
2023/05/29 11:21:50;;;;;;;7.25;4.12;;;28.90;59.60;;;;;;10963309;32;20022;-74
2023/05/29 11:27:55;;;;;;;8.05;4.07;;;29.00;61.70;;;;;;10967568;32;20027;-74
2023/05/29 11:34:01;;;;;;;9.02;3.83;;;29.10;60.90;;;;;;10980362;32;20042;-76
2023/05/29 11:40:08;;;;;;;10.40;4.78;;;29.30;59.10;;;;;;10980401;32;20049;-75
2023/05/29 11:46:18;;;;;;;6.95;3.78;;;29.40;59.90;;;;;;10980065;32;20023;-75
2023/05/29 11:52:51;;;;;;;10.80;4.25;;;29.30;58.50;;;;;;10979834;32;20019;-74
2023/05/29 11:58:57;;;;;;;10.45;5.25;;;29.70;56.60;;;;;;10979657;32;20104;-73
2023/05/29 12:05:36;;;;;;;5.73;3.33;;;29.80;55.50;;;;;;10979420;32;20019;-75
2023/05/29 12:11:38;;;;;;;17.30;5.93;;;29.80;56.40;;;;;;10966309;32;20413;-73
2023/05/29 12:17:41;;;;;;;4.47;3.03;;;29.80;54.90;;;;;;10979954;32;20015;-75
2023/05/29 12:23:43;;;;;;;10.55;5.05;;;29.80;56.00;;;;;;10980082;32;20040;-74
2023/05/29 12:29:47;;;;;;;6.35;2.90;;;29.80;55.40;;;;;;10979891;32;20317;-74
2023/05/29 12:36:16;;;;;;;8.73;3.17;;;29.80;56.30;;;;;;10979975;32;20007;-74
2023/05/29 12:42:18;;;;;;;9.20;5.68;;;29.80;53.80;;;;;;10982709;32;20045;-74
2023/05/29 12:48:22;;;;;;;9.07;4.43;;;30.00;56.30;;;;;;10986587;32;20015;-76
2023/05/29 12:54:27;;;;;;;7.07;3.53;;;29.80;55.00;;;;;;11005390;32;20482;-75
2023/05/29 13:00:30;;;;;;;8.57;4.22;;;29.80;53.30;;;;;;10986169;32;20019;-75
2023/05/29 13:06:35;;;;;;;8.38;3.97;;;29.90;52.00;;;;;;10988490;32;20049;-74
2023/05/29 13:12:38;;;;;;;6.28;3.65;;;30.00;51.90;;;;;;11006977;32;20363;-74
2023/05/29 13:18:40;;;;;;;9.02;2.85;;;30.00;50.80;;;;;;11023888;32;20446;-74
2023/05/29 13:24:42;;;;;;;6.20;3.00;;;30.00;53.00;;;;;;10999770;32;20027;-75
2023/05/29 13:30:44;;;;;;;8.85;3.90;;;29.80;51.40;;;;;;10985160;32;20042;-75
2023/05/29 13:36:47;;;;;;;6.45;3.33;;;29.80;53.50;;;;;;10971197;32;20072;-75
2023/05/29 13:42:49;;;;;;;6.60;3.65;;;29.80;52.30;;;;;;10978027;32;20026;-74
2023/05/29 13:48:53;;;;;;;6.12;3.80;;;29.70;54.60;;;;;;10969302;32;20345;-74
2023/05/29 13:55:21;;;;;;;8.68;3.05;;;29.60;55.30;;;;;;10982934;32;20050;-75
2023/05/29 14:01:24;;;;;;;11.43;3.90;;;29.60;53.70;;;;;;10976596;32;20026;-74
2023/05/29 14:07:26;;;;;;;5.53;3.30;;;29.60;55.80;;;;;;10983182;32;20044;-74
2023/05/29 14:13:29;;;;;;;7.43;3.03;;;29.40;57.90;;;;;;10954760;32;20027;-75
2023/05/29 14:19:31;;;;;;;6.40;3.83;;;29.40;55.10;;;;;;10941760;32;20023;-74
2023/05/29 14:25:33;;;;;;;9.27;4.25;;;29.60;53.80;;;;;;10941383;32;20098;-74
2023/05/29 14:31:35;;;;;;;5.53;3.37;;;29.50;52.90;;;;;;10945543;32;20390;-74
2023/05/29 14:37:37;;;;;;;5.12;3.15;;;29.70;54.40;;;;;;10945364;32;20046;-75
2023/05/29 14:43:43;;;;;;;5.60;3.45;;;29.70;56.20;;;;;;10944700;32;20027;-75
2023/05/29 14:49:45;;;;;;;5.55;2.83;;;29.70;55.90;;;;;;10931426;32;20073;-75
2023/05/29 14:55:47;;;;;;;4.30;2.72;;;29.70;55.20;;;;;;10944454;32;20026;-76
2023/05/29 15:01:49;;;;;;;7.00;3.60;;;29.80;55.10;;;;;;10944479;32;20030;-74
2023/05/29 15:07:51;;;;;;;8.90;4.80;;;29.70;55.40;;;;;;10943638;32;20031;-74
2023/05/29 15:13:53;;;;;;;5.62;3.45;;;29.60;57.40;;;;;;10944057;32;20325;-74
2023/05/29 15:20:14;;;;;;;3.75;2.28;;;29.40;58.10;;;;;;10943798;32;20072;-74
2023/05/29 15:26:16;;;;;;;5.20;2.85;;;29.40;58.40;;;;;;10963640;27;20341;-74
2023/05/29 15:32:19;;;;;;;3.78;2.87;;;29.40;58.20;;;;;;10980803;32;20015;-78
2023/05/29 15:38:21;;;;;;;5.18;3.50;;;29.30;59.30;;;;;;10954188;32;20046;-74
2023/05/29 15:44:23;;;;;;;5.37;3.33;;;29.30;59.40;;;;;;10978767;32;20030;-76
2023/05/29 15:50:25;;;;;;;13.88;3.50;;;29.30;59.20;;;;;;10980223;32;20049;-75
2023/05/29 15:56:28;;;;;;;3.35;1.80;;;29.40;58.90;;;;;;10980124;32;20045;-75
2023/05/29 16:03:01;;;;;;;3.72;2.03;;;29.60;58.60;;;;;;10979690;32;20018;-75
2023/05/29 16:09:03;;;;;;;6.75;3.72;;;29.60;59.30;;;;;;10979899;32;20018;-74
2023/05/29 16:15:05;;;;;;;5.68;2.60;;;29.60;59.50;;;;;;10975504;32;20060;-75
2023/05/29 16:21:07;;;;;;;4.87;2.92;;;29.40;59.20;;;;;;10975534;32;20023;-74
2023/05/29 16:27:10;;;;;;;7.05;2.65;;;29.30;59.30;;;;;;10979388;32;20026;-74
2023/05/29 16:33:12;;;;;;;6.32;3.00;;;29.30;59.20;;;;;;10979473;32;20015;-74
2023/05/29 16:39:36;;;;;;;5.07;2.30;;;29.20;60.20;;;;;;10952078;32;20348;-75
2023/05/29 16:45:38;;;;;;;3.83;2.30;;;29.20;61.20;;;;;;10975881;32;20027;-74
2023/05/29 16:51:40;;;;;;;12.70;3.10;;;29.30;63.10;;;;;;10979141;32;20026;-74
2023/05/29 16:57:42;;;;;;;6.75;3.30;;;29.30;63.90;;;;;;10979047;32;20359;-74
2023/05/29 17:03:44;;;;;;;4.28;3.10;;;29.30;63.80;;;;;;10978966;32;20019;-74
2023/05/29 17:09:47;;;;;;;5.78;2.67;;;29.10;64.00;;;;;;10978877;32;20029;-75
2023/05/29 17:15:49;;;;;;;6.18;2.40;;;29.00;64.80;;;;;;10978307;32;20041;-74
2023/05/29 17:21:51;;;;;;;4.12;2.78;;;28.90;65.10;;;;;;10975804;32;20026;-74
2023/05/29 17:27:54;;;;;;;4.25;2.33;;;28.80;65.90;;;;;;10975968;32;20401;-74
2023/05/29 17:33:56;;;;;;;5.78;3.10;;;28.80;65.80;;;;;;10985154;32;20015;-74
2023/05/29 17:39:59;;;;;;;7.62;3.35;;;28.60;66.30;;;;;;10968518;32;20030;-74
2023/05/29 17:46:01;;;;;;;4.40;2.55;;;28.50;66.60;;;;;;10947381;32;20033;-74
2023/05/29 17:52:06;;;;;;;4.25;2.15;;;28.40;67.50;;;;;;10932764;32;20412;-74
2023/05/29 17:58:08;;;;;;;4.75;1.67;;;28.40;68.20;;;;;;10961652;32;20053;-74
2023/05/29 18:04:11;;;;;;;3.90;2.37;;;28.40;68.60;;;;;;10970605;32;20329;-74
2023/05/29 18:10:20;;;;;;;4.90;2.45;;;28.30;68.90;;;;;;10983838;32;20022;-74
2023/05/29 18:16:22;;;;;;;5.35;2.25;;;28.20;69.40;;;;;;10970265;32;20015;-74
2023/05/29 18:22:24;;;;;;;3.03;1.62;;;28.10;69.80;;;;;;10983496;32;20011;-74
2023/05/29 18:28:26;;;;;;;3.80;1.80;;;28.00;70.40;;;;;;10970070;32;20080;-74
2023/05/29 18:34:29;;;;;;;3.62;1.67;;;27.90;70.40;;;;;;10983078;32;20018;-74
2023/05/29 18:40:32;;;;;;;2.53;1.17;;;27.90;70.40;;;;;;10980779;32;20409;-75
2023/05/29 18:46:34;;;;;;;3.12;2.20;;;27.80;70.30;;;;;;10978407;32;20019;-74
2023/05/29 18:52:36;;;;;;;6.68;2.12;;;27.80;70.30;;;;;;10982227;32;20068;-75
2023/05/29 18:58:38;;;;;;;2.00;1.52;;;27.70;70.40;;;;;;10979953;32;20332;-75
2023/05/29 19:04:40;;;;;;;2.47;1.62;;;27.60;70.60;;;;;;10963669;32;20031;-75
2023/05/29 19:10:42;;;;;;;3.67;1.35;;;27.50;70.60;;;;;;10979386;32;20396;-74
2023/05/29 19:16:44;;;;;;;5.07;1.90;;;27.40;70.80;;;;;;10981865;32;20362;-74
2023/05/29 19:22:53;;;;;;;3.40;1.70;;;27.40;70.80;;;;;;10976557;32;20041;-75
2023/05/29 19:28:55;;;;;;;1.90;1.23;;;27.30;70.90;;;;;;10964105;32;20053;-75
2023/05/29 19:34:57;;;;;;;5.00;1.85;;;27.20;71.00;;;;;;10980738;32;20020;-75
2023/05/29 19:41:00;;;;;;;4.37;1.30;;;27.30;71.20;;;;;;10977071;32;20442;-75
2023/05/29 19:47:02;;;;;;;8.10;1.77;;;27.10;71.30;;;;;;10963567;32;20044;-74
2023/05/29 19:53:45;;;;;;;2.90;1.25;;;27.00;71.40;;;;;;10979002;32;20019;-75
2023/05/29 19:59:48;;;;;;;3.10;1.50;;;27.00;72.00;;;;;;10979994;32;20439;-74
2023/05/29 20:05:50;;;;;;;4.37;2.20;;;26.90;72.30;;;;;;10953340;32;20065;-75
2023/05/29 20:11:52;;;;;;;4.32;2.10;;;26.90;72.40;;;;;;10965259;32;20057;-74
2023/05/29 20:17:54;;;;;;;2.12;1.10;;;26.80;72.40;;;;;;10979545;32;20026;-75
2023/05/29 20:23:57;;;;;;;2.42;1.83;;;26.80;72.50;;;;;;10978102;32;20348;-74
2023/05/29 20:29:59;;;;;;;4.10;1.77;;;26.70;72.70;;;;;;10965723;32;20031;-74
2023/05/29 20:36:01;;;;;;;3.40;1.70;;;26.70;73.20;;;;;;10977446;32;20022;-75
2023/05/29 20:42:04;;;;;;;4.32;2.45;;;26.70;73.40;;;;;;10976855;32;20400;-74
2023/05/29 20:48:06;;;;;;;2.12;1.37;;;26.70;73.40;;;;;;10977976;32;20058;-74
2023/05/29 20:54:08;;;;;;;6.25;2.05;;;26.60;73.40;;;;;;10961871;32;20045;-74
2023/05/29 21:00:11;;;;;;;2.60;1.58;;;26.60;73.50;;;;;;10963858;32;20057;-74
2023/05/29 21:06:13;;;;;;;3.55;1.90;;;26.50;73.50;;;;;;10980824;32;20037;-75
2023/05/29 21:12:15;;;;;;;2.03;1.17;;;26.40;73.70;;;;;;10968509;32;20031;-75
2023/05/29 21:18:17;;;;;;;5.05;1.45;;;26.40;73.80;;;;;;10972088;32;20368;-75
2023/05/29 21:24:19;;;;;;;4.37;1.52;;;26.40;73.70;;;;;;10985508;32;20049;-75
2023/05/29 21:30:23;;;;;;;2.70;1.70;;;26.40;74.20;;;;;;10971155;32;20023;-75
2023/05/29 21:36:26;;;;;;;3.85;2.15;;;26.30;74.20;;;;;;10984190;32;20423;-75
2023/05/29 21:42:28;;;;;;;1.95;1.70;;;26.30;74.40;;;;;;10983925;32;20045;-75
2023/05/29 21:48:30;;;;;;;3.62;2.10;;;26.30;74.60;;;;;;10969951;32;20057;-75
2023/05/29 21:54:32;;;;;;;2.87;2.05;;;26.30;74.70;;;;;;10984431;32;20015;-74
2023/05/29 22:00:35;;;;;;;4.53;2.15;;;26.20;74.70;;;;;;10982808;32;20034;-75
2023/05/29 22:06:37;;;;;;;4.95;2.58;;;26.20;75.00;;;;;;10980191;32;20469;-75
2023/05/29 22:12:40;;;;;;;3.60;2.35;;;26.10;75.00;;;;;;10982341;32;20022;-74
2023/05/29 22:18:42;;;;;;;4.70;2.37;;;26.10;74.90;;;;;;10982438;32;20037;-75
2023/05/29 22:24:44;;;;;;;3.03;1.60;;;26.10;75.10;;;;;;10983489;32;20046;-75
2023/05/29 22:30:46;;;;;;;3.75;1.85;;;26.00;75.50;;;;;;10980140;32;20061;-75
2023/05/29 22:36:48;;;;;;;2.28;1.45;;;26.00;76.10;;;;;;10978843;32;20397;-75
2023/05/29 22:42:50;;;;;;;4.05;2.25;;;25.90;76.30;;;;;;10979890;32;20050;-74
2023/05/29 22:48:53;;;;;;;3.15;2.10;;;25.80;76.70;;;;;;10982447;32;20019;-75
2023/05/29 22:54:54;;;;;;;3.20;2.10;;;25.80;77.00;;;;;;10982254;32;20019;-73
2023/05/29 23:00:56;;;;;;;7.20;3.62;;;25.70;77.30;;;;;;10977945;32;20379;-73
2023/05/29 23:06:58;;;;;;;5.60;3.53;;;25.60;77.20;;;;;;10981735;32;20040;-75
2023/05/29 23:13:00;;;;;;;8.25;3.90;;;25.30;77.30;;;;;;10981528;32;20022;-73
2023/05/29 23:19:03;;;;;;;6.53;3.85;;;25.30;77.00;;;;;;10981361;32;20023;-73
2023/05/29 23:25:07;;;;;;;14.48;5.60;;;25.20;76.40;;;;;;10980454;27;20064;-74
2023/05/29 23:31:09;;;;;;;7.15;4.43;;;25.10;76.90;;;;;;10967513;32;20019;-74
2023/05/29 23:37:24;;;;;;;6.57;3.60;;;25.10;77.40;;;;;;10967290;32;20393;-74
2023/05/29 23:43:26;;;;;;;7.40;3.80;;;25.10;77.40;;;;;;10964454;32;20026;-74
2023/05/29 23:49:28;;;;;;;6.20;3.30;;;25.00;77.80;;;;;;10980391;32;20056;-74
2023/05/29 23:55:32;;;;;;;4.68;3.00;;;25.00;77.80;;;;;;10979514;32;20018;-75
